createdAt,value
2018-08-16T00:00:33.498Z,19.86
2018-08-16T00:03:04.923Z,19.85
2018-08-16T00:05:35.996Z,19.92
2018-08-16T00:08:06.809Z,19.92
2018-08-16T00:10:42.152Z,19.85
2018-08-16T00:13:17.461Z,19.87
2018-08-16T00:15:48.462Z,19.78
2018-08-16T00:18:19.971Z,19.71
2018-08-16T00:20:55.698Z,19.75
2018-08-16T00:23:26.565Z,19.76
2018-08-16T00:25:57.728Z,19.75
2018-08-16T00:28:28.516Z,19.70
2018-08-16T00:30:59.903Z,19.69
2018-08-16T00:33:32.404Z,19.69
2018-08-16T00:36:03.405Z,19.68
2018-08-16T00:38:34.150Z,19.66
2018-08-16T00:41:03.951Z,19.58
2018-08-16T00:43:34.700Z,19.53
2018-08-16T00:46:05.599Z,19.54
2018-08-16T00:48:36.475Z,19.54
2018-08-16T00:51:08.749Z,19.51
2018-08-16T00:53:39.478Z,19.51
2018-08-16T00:56:10.604Z,19.43
2018-08-16T00:58:42.831Z,19.43
2018-08-16T01:01:15.953Z,19.43
2018-08-16T01:03:47.483Z,19.29
2018-08-16T01:06:18.611Z,19.32
2018-08-16T01:08:49.443Z,19.33
2018-08-16T01:11:20.987Z,19.27
2018-08-16T01:13:52.354Z,19.22
2018-08-16T01:16:23.232Z,19.20
2018-08-16T01:18:54.305Z,19.24
2018-08-16T01:21:26.534Z,19.24
2018-08-16T01:23:57.967Z,19.12
2018-08-16T01:26:28.717Z,19.06
2018-08-16T01:28:59.753Z,19.06
2018-08-16T01:31:30.855Z,19.14
2018-08-16T01:34:01.889Z,19.03
2018-08-16T01:36:32.773Z,18.98
2018-08-16T01:39:03.874Z,18.95
2018-08-16T01:41:36.235Z,18.88
2018-08-16T01:44:07.351Z,18.87
2018-08-16T01:46:38.475Z,18.84
2018-08-16T01:52:12.214Z,18.80
2018-08-16T01:54:44.712Z,18.78
2018-08-16T01:57:15.566Z,18.74
2018-08-16T01:59:44.168Z,18.78
2018-08-16T02:02:14.849Z,18.78
2018-08-16T02:04:46.081Z,18.71
2018-08-16T02:07:16.955Z,18.63
2018-08-16T02:09:47.914Z,18.64
2018-08-16T02:12:18.598Z,18.65
2018-08-16T02:14:49.881Z,18.59
2018-08-16T02:17:22.513Z,18.55
2018-08-16T02:19:54.040Z,18.49
2018-08-16T02:22:27.558Z,18.49
2018-08-16T02:24:58.893Z,18.43
2018-08-16T02:27:29.991Z,18.38
2018-08-16T02:30:01.318Z,18.33
2018-08-16T02:32:32.391Z,18.26
2018-08-16T02:35:03.369Z,18.24
2018-08-16T02:37:34.416Z,18.23
2018-08-16T02:40:06.156Z,18.19
2018-08-16T02:42:36.843Z,18.14
2018-08-16T02:45:07.899Z,18.07
2018-08-16T02:47:38.486Z,18.13
2018-08-16T02:50:09.947Z,18.15
2018-08-16T02:52:40.734Z,18.08
2018-08-16T02:55:13.174Z,18.07
2018-08-16T02:57:43.984Z,18.04
2018-08-16T03:00:15.087Z,18.11
2018-08-16T03:02:46.437Z,18.12
2018-08-16T03:05:18.061Z,18.17
2018-08-16T03:07:53.592Z,18.14
2018-08-16T03:10:25.839Z,18.10
2018-08-16T03:12:56.353Z,18.10
2018-08-16T03:15:28.114Z,18.04
2018-08-16T03:17:59.334Z,18.01
2018-08-16T03:20:32.749Z,18.01
2018-08-16T03:23:03.894Z,17.94
2018-08-16T03:25:36.304Z,17.93
2018-08-16T03:28:05.004Z,17.91
2018-08-16T03:30:35.636Z,18.01
2018-08-16T03:33:07.863Z,17.92
2018-08-16T03:35:38.675Z,17.82
2018-08-16T03:38:09.868Z,17.79
2018-08-16T03:40:40.550Z,17.91
2018-08-16T03:43:13.434Z,17.85
2018-08-16T03:45:44.228Z,17.85
2018-08-16T03:48:15.351Z,17.76
2018-08-16T03:50:45.957Z,17.69
2018-08-16T03:53:17.176Z,17.67
2018-08-16T03:55:48.046Z,17.69
2018-08-16T03:58:24.067Z,17.64
2018-08-16T04:00:55.080Z,17.60
2018-08-16T04:03:27.836Z,17.55
2018-08-16T04:05:58.590Z,17.57
2018-08-16T04:08:29.619Z,17.56
2018-08-16T04:11:00.602Z,17.51
2018-08-16T04:13:32.372Z,17.52
2018-08-16T04:16:04.102Z,17.56
2018-08-16T04:18:34.739Z,17.48
2018-08-16T04:21:05.570Z,17.52
2018-08-16T04:23:36.585Z,17.51
2018-08-16T04:26:07.317Z,17.51
2018-08-16T04:28:39.692Z,17.48
2018-08-16T04:31:11.135Z,17.44
2018-08-16T04:33:42.244Z,17.39
2018-08-16T04:36:10.998Z,17.38
2018-08-16T04:38:39.644Z,17.44
2018-08-16T04:41:08.584Z,17.40
2018-08-16T04:43:38.029Z,17.39
2018-08-16T04:46:06.786Z,17.44
2018-08-16T04:48:35.406Z,17.47
2018-08-16T04:51:04.030Z,17.51
2018-08-16T04:53:32.719Z,17.50
2018-08-16T04:56:01.369Z,17.54
2018-08-16T04:58:30.261Z,17.61
2018-08-16T05:00:58.860Z,17.65
2018-08-16T05:03:29.889Z,17.70
2018-08-16T05:05:58.621Z,17.73
2018-08-16T05:08:27.302Z,17.73
2018-08-16T05:10:56.561Z,17.73
2018-08-16T05:13:25.823Z,17.79
2018-08-16T05:15:54.440Z,17.86
2018-08-16T05:18:24.152Z,17.98
2018-08-16T05:20:53.066Z,18.05
2018-08-16T05:23:22.253Z,18.04
2018-08-16T05:25:51.565Z,18.10
2018-08-16T05:28:20.232Z,18.15
2018-08-16T05:30:48.948Z,18.21
2018-08-16T05:33:17.652Z,18.24
2018-08-16T05:35:46.302Z,18.31
2018-08-16T05:38:15.028Z,18.39
2018-08-16T05:40:43.696Z,18.49
2018-08-16T05:43:12.412Z,18.51
2018-08-16T05:45:41.161Z,18.58
2018-08-16T05:48:10.010Z,18.73
2018-08-16T05:50:40.572Z,18.87
2018-08-16T05:53:10.736Z,19.05
2018-08-16T05:55:39.397Z,20.06
2018-08-16T05:58:08.550Z,21.97
2018-08-16T06:00:37.188Z,23.37
2018-08-16T06:03:05.964Z,24.49
2018-08-16T06:05:34.605Z,25.42
2018-08-16T06:08:03.903Z,26.18
2018-08-16T06:10:32.522Z,26.62
2018-08-16T06:13:01.240Z,27.14
2018-08-16T06:15:30.780Z,27.63
2018-08-16T06:17:59.494Z,28.10
2018-08-16T06:20:28.836Z,28.51
2018-08-16T06:22:57.394Z,28.80
2018-08-16T06:25:26.010Z,29.19
2018-08-16T06:27:54.821Z,29.63
2018-08-16T06:30:23.715Z,29.93
2018-08-16T06:32:52.881Z,30.13
2018-08-16T06:35:21.586Z,30.29
2018-08-16T06:37:50.367Z,30.34
2018-08-16T06:40:19.565Z,29.53
2018-08-16T06:42:48.874Z,27.45
2018-08-16T06:45:17.524Z,25.41
2018-08-16T06:47:46.297Z,24.23
2018-08-16T06:50:14.995Z,23.60
2018-08-16T06:52:44.234Z,23.28
2018-08-16T06:55:13.071Z,23.08
2018-08-16T06:57:41.706Z,22.98
2018-08-16T07:00:14.772Z,22.83
2018-08-16T07:02:43.977Z,22.62
2018-08-16T07:05:13.005Z,22.64
2018-08-16T07:07:41.677Z,22.72
2018-08-16T07:10:11.950Z,22.70
2018-08-16T07:12:40.663Z,22.72
2018-08-16T07:15:13.069Z,22.81
2018-08-16T07:17:42.199Z,22.86
2018-08-16T07:20:10.880Z,22.90
2018-08-16T07:22:39.576Z,22.98
2018-08-16T07:25:09.483Z,23.05
2018-08-16T07:27:38.112Z,23.18
2018-08-16T07:30:08.630Z,23.24
2018-08-16T07:32:37.215Z,23.39
2018-08-16T07:35:07.060Z,23.49
2018-08-16T07:37:35.863Z,23.48
2018-08-16T07:40:05.117Z,23.56
2018-08-16T07:42:33.856Z,23.65
2018-08-16T07:45:02.501Z,23.77
2018-08-16T07:47:31.162Z,23.88
2018-08-16T07:49:59.777Z,24.05
2018-08-16T07:52:28.373Z,24.15
2018-08-16T07:54:57.036Z,24.24
2018-08-16T07:57:26.240Z,24.34
2018-08-16T07:59:54.918Z,24.38
2018-08-16T08:02:23.615Z,24.49
2018-08-16T08:04:52.253Z,24.60
2018-08-16T08:07:20.962Z,24.61
2018-08-16T08:09:50.333Z,24.68
2018-08-16T08:12:20.600Z,24.55
2018-08-16T08:14:49.365Z,24.51
2018-08-16T08:17:17.947Z,24.64
2018-08-16T08:19:47.753Z,24.87
2018-08-16T08:22:16.458Z,25.00
2018-08-16T08:24:45.100Z,25.06
2018-08-16T08:27:13.728Z,25.23
2018-08-16T08:29:42.342Z,25.24
2018-08-16T08:32:11.678Z,25.27
2018-08-16T08:34:40.623Z,25.36
2018-08-16T08:37:20.418Z,25.50
2018-08-16T08:39:49.055Z,25.71
2018-08-16T08:42:17.777Z,25.82
2018-08-16T08:44:46.415Z,25.86
2018-08-16T08:47:15.360Z,25.95
2018-08-16T08:49:43.981Z,26.11
2018-08-16T08:52:13.267Z,26.18
2018-08-16T08:54:55.219Z,26.34
2018-08-16T08:57:36.037Z,26.41
2018-08-16T09:00:05.855Z,26.48
2018-08-16T09:02:34.551Z,26.57
2018-08-16T09:05:03.270Z,26.74
2018-08-16T09:07:33.111Z,26.74
2018-08-16T09:11:15.661Z,26.80
2018-08-16T09:13:56.435Z,26.91
2018-08-16T09:16:27.223Z,27.02
2018-08-16T09:18:56.212Z,27.09
2018-08-16T09:21:24.915Z,27.16
2018-08-16T09:23:53.622Z,27.29
2018-08-16T09:26:28.242Z,27.42
2018-08-16T09:28:58.214Z,27.57
2018-08-16T09:31:38.101Z,27.72
2018-08-16T09:34:16.327Z,27.87
2018-08-16T09:36:44.975Z,28.03
2018-08-16T09:39:13.812Z,28.18
2018-08-16T09:41:43.134Z,28.29
2018-08-16T09:44:11.803Z,28.30
2018-08-16T09:46:54.548Z,28.26
2018-08-16T09:49:23.263Z,28.41
2018-08-16T09:51:51.880Z,28.49
2018-08-16T09:54:20.628Z,28.58
2018-08-16T09:56:49.598Z,28.68
2018-08-16T09:59:18.416Z,28.72
2018-08-16T10:01:47.109Z,28.74
2018-08-16T10:04:15.912Z,28.77
2018-08-16T10:06:44.905Z,28.94
2018-08-16T10:09:16.649Z,28.93
2018-08-16T10:11:45.928Z,28.86
2018-08-16T10:14:14.824Z,28.91
2018-08-16T10:16:43.480Z,29.06
2018-08-16T10:19:12.289Z,29.11
2018-08-16T10:21:41.164Z,29.18
2018-08-16T10:24:09.857Z,29.29
2018-08-16T10:26:38.551Z,29.32
2018-08-16T10:29:07.875Z,29.43
2018-08-16T10:31:37.205Z,29.60
2018-08-16T10:34:05.892Z,29.73
2018-08-16T10:36:34.705Z,29.74
2018-08-16T10:39:04.873Z,29.79
2018-08-16T10:41:33.602Z,29.85
2018-08-16T10:44:02.832Z,29.90
2018-08-16T10:46:31.541Z,30.03
2018-08-16T10:49:00.179Z,30.13
2018-08-16T10:51:28.855Z,30.15
2018-08-16T10:53:57.598Z,30.14
2018-08-16T10:56:26.258Z,30.16
2018-08-16T10:58:55.185Z,30.15
2018-08-16T11:01:23.912Z,30.29
2018-08-16T11:03:52.588Z,30.26
2018-08-16T11:06:21.420Z,30.28
2018-08-16T11:08:50.121Z,30.28
2018-08-16T11:11:22.964Z,30.34
2018-08-16T11:13:51.600Z,30.47
2018-08-16T11:16:20.901Z,30.57
2018-08-16T11:18:50.358Z,30.64
2018-08-16T11:21:19.934Z,30.73
2018-08-16T11:23:48.597Z,30.65
2018-08-16T11:26:17.294Z,30.68
2018-08-16T11:28:45.892Z,30.65
2018-08-16T11:31:14.734Z,30.73
2018-08-16T11:33:43.359Z,30.77
2018-08-16T11:36:12.000Z,30.93
2018-08-16T11:38:40.657Z,30.98
2018-08-16T11:41:09.746Z,30.85
2018-08-16T11:43:39.285Z,30.98
2018-08-16T11:46:08.738Z,31.01
2018-08-16T11:48:37.387Z,31.15
2018-08-16T11:51:06.008Z,31.14
2018-08-16T11:53:34.658Z,31.29
2018-08-16T11:56:03.280Z,31.41
2018-08-16T11:58:32.066Z,31.48
2018-08-16T12:01:00.663Z,31.49
2018-08-16T12:03:30.350Z,31.51
2018-08-16T12:05:59.696Z,31.37
2018-08-16T12:08:30.748Z,31.34
2018-08-16T12:10:59.336Z,31.30
2018-08-16T12:13:28.068Z,31.22
2018-08-16T12:15:56.657Z,31.29
2018-08-16T12:18:29.775Z,31.29
2018-08-16T12:20:58.418Z,31.36
2018-08-16T12:23:27.017Z,31.44
2018-08-16T12:25:55.708Z,31.53
2018-08-16T12:28:24.358Z,31.61
2018-08-16T12:30:53.003Z,31.85
2018-08-16T12:33:22.360Z,32.05
2018-08-16T12:35:51.044Z,32.24
2018-08-16T12:38:19.677Z,33.01
2018-08-16T12:40:50.109Z,33.92
2018-08-16T12:43:16.924Z,34.70
2018-08-16T12:45:45.591Z,36.64
2018-08-16T12:48:14.200Z,37.97
2018-08-16T12:50:42.897Z,38.66
2018-08-16T12:53:11.490Z,39.04
2018-08-16T12:55:40.156Z,39.39
2018-08-16T12:58:08.893Z,39.79
2018-08-16T13:00:37.656Z,40.22
2018-08-16T13:03:06.287Z,41.18
2018-08-16T13:05:34.945Z,40.50
2018-08-16T13:08:03.623Z,39.94
2018-08-16T13:10:32.248Z,40.96
2018-08-16T13:13:00.847Z,41.47
2018-08-16T13:15:29.491Z,42.32
2018-08-16T13:17:58.144Z,41.95
2018-08-16T13:20:27.405Z,41.42
2018-08-16T13:22:56.030Z,41.88
2018-08-16T13:25:24.707Z,41.70
2018-08-16T13:27:53.389Z,40.06
2018-08-16T13:30:22.786Z,39.90
2018-08-16T13:32:51.455Z,38.51
2018-08-16T13:35:20.057Z,38.34
2018-08-16T13:37:48.679Z,38.51
2018-08-16T13:40:17.343Z,39.14
2018-08-16T13:42:46.053Z,39.35
2018-08-16T13:45:14.623Z,39.07
2018-08-16T13:47:43.295Z,38.28
2018-08-16T13:50:12.603Z,37.82
2018-08-16T13:52:41.344Z,37.96
2018-08-16T13:55:10.075Z,38.23
2018-08-16T13:57:38.779Z,38.88
2018-08-16T14:00:08.421Z,39.75
2018-08-16T14:02:37.112Z,40.32
2018-08-16T14:05:05.909Z,40.07
2018-08-16T14:07:35.479Z,40.11
2018-08-16T14:10:04.358Z,39.72
2018-08-16T14:12:33.025Z,40.19
2018-08-16T14:15:01.655Z,40.15
2018-08-16T14:17:31.096Z,40.99
2018-08-16T14:20:00.417Z,40.67
2018-08-16T14:22:29.731Z,40.53
2018-08-16T14:24:58.353Z,40.48
2018-08-16T14:27:27.112Z,40.24
2018-08-16T14:29:55.734Z,40.11
2018-08-16T14:32:24.343Z,41.07
2018-08-16T14:34:53.525Z,41.60
2018-08-16T14:37:22.168Z,41.54
2018-08-16T14:39:51.540Z,40.75
2018-08-16T14:42:20.235Z,40.16
2018-08-16T14:44:48.861Z,39.83
2018-08-16T14:47:18.192Z,39.38
2018-08-16T14:49:46.924Z,39.02
2018-08-16T14:52:16.113Z,38.50
2018-08-16T14:54:45.500Z,38.48
2018-08-16T14:57:14.126Z,38.40
2018-08-16T14:59:42.793Z,38.30
2018-08-16T15:02:11.491Z,38.55
2018-08-16T15:04:40.085Z,38.26
2018-08-16T15:07:08.858Z,37.64
2018-08-16T15:09:37.512Z,37.45
2018-08-16T15:12:06.407Z,37.76
2018-08-16T15:14:35.313Z,37.19
2018-08-16T15:17:03.925Z,37.55
2018-08-16T15:19:32.579Z,37.44
2018-08-16T15:22:01.385Z,36.98
2018-08-16T15:24:30.696Z,36.76
2018-08-16T15:26:59.350Z,37.20
2018-08-16T15:29:28.109Z,37.35
2018-08-16T15:31:56.713Z,36.81
2018-08-16T15:34:25.421Z,36.11
2018-08-16T15:36:54.059Z,36.09
2018-08-16T15:39:22.965Z,36.21
2018-08-16T15:41:52.380Z,36.16
2018-08-16T15:44:21.931Z,35.87
2018-08-16T15:46:50.845Z,35.97
2018-08-16T15:49:19.634Z,36.10
2018-08-16T15:51:48.252Z,35.96
2018-08-16T15:54:16.854Z,35.58
2018-08-16T15:56:47.030Z,35.41
2018-08-16T15:59:15.697Z,35.28
2018-08-16T16:01:44.297Z,35.29
2018-08-16T16:04:13.646Z,34.80
2018-08-16T16:06:42.390Z,34.59
2018-08-16T16:09:11.574Z,34.21
2018-08-16T16:11:40.739Z,33.95
2018-08-16T16:14:09.492Z,33.65
2018-08-16T16:16:38.275Z,33.58
2018-08-16T16:19:07.599Z,33.44
2018-08-16T16:21:37.309Z,33.43
2018-08-16T16:24:07.004Z,33.38
2018-08-16T16:26:36.718Z,33.31
2018-08-16T16:29:06.102Z,33.23
2018-08-16T16:31:36.011Z,33.16
2018-08-16T16:34:07.272Z,33.10
2018-08-16T16:36:37.230Z,33.16
2018-08-16T16:39:09.232Z,33.17
2018-08-16T16:41:38.711Z,33.04
2018-08-16T16:44:15.968Z,32.84
2018-08-16T16:46:45.394Z,32.56
2018-08-16T16:49:16.147Z,32.44
2018-08-16T16:51:45.167Z,32.43
2018-08-16T16:54:13.882Z,32.39
2018-08-16T16:56:42.746Z,32.28
2018-08-16T16:59:11.509Z,32.21
2018-08-16T17:01:40.434Z,32.18
2018-08-16T17:04:10.068Z,32.12
2018-08-16T17:06:38.844Z,32.06
2018-08-16T17:09:11.244Z,31.98
2018-08-16T17:11:40.378Z,31.82
2018-08-16T17:14:09.544Z,31.68
2018-08-16T17:16:38.840Z,31.58
2018-08-16T17:19:08.269Z,31.52
2018-08-16T17:21:36.974Z,31.43
2018-08-16T17:24:06.761Z,31.36
2018-08-16T17:26:35.436Z,31.28
2018-08-16T17:29:04.909Z,31.20
2018-08-16T17:31:34.178Z,31.13
2018-08-16T17:34:03.378Z,31.05
2018-08-16T17:36:32.053Z,31.08
2018-08-16T17:39:00.770Z,31.08
2018-08-16T17:41:29.451Z,31.10
2018-08-16T17:43:58.066Z,30.98
2018-08-16T17:46:26.653Z,30.92
2018-08-16T17:48:55.305Z,30.92
2018-08-16T17:51:24.392Z,30.92
2018-08-16T17:53:53.323Z,30.88
2018-08-16T17:56:21.964Z,30.88
2018-08-16T17:58:50.799Z,30.82
2018-08-16T18:01:20.107Z,30.77
2018-08-16T18:03:48.811Z,30.74
2018-08-16T18:06:17.451Z,30.71
2018-08-16T18:08:46.118Z,30.54
2018-08-16T18:11:14.892Z,30.46
2018-08-16T18:13:43.678Z,30.39
2018-08-16T18:16:12.332Z,30.33
2018-08-16T18:18:42.235Z,30.27
2018-08-16T18:21:12.575Z,30.21
2018-08-16T18:23:42.019Z,30.15
2018-08-16T18:26:10.748Z,30.11
2018-08-16T18:28:39.512Z,29.81
2018-08-16T18:31:08.282Z,30.02
2018-08-16T18:33:37.126Z,29.97
2018-08-16T18:36:06.021Z,29.91
2018-08-16T18:38:34.651Z,29.82
2018-08-16T18:41:03.386Z,29.78
2018-08-16T18:43:32.020Z,29.75
2018-08-16T18:46:01.640Z,29.68
2018-08-16T18:48:30.253Z,29.61
2018-08-16T18:50:58.960Z,29.53
2018-08-16T18:53:27.726Z,29.43
2018-08-16T18:55:56.379Z,29.37
2018-08-16T18:58:25.103Z,29.31
2018-08-16T19:00:53.826Z,29.25
2018-08-16T19:03:22.592Z,29.18
2018-08-16T19:05:51.345Z,29.15
2018-08-16T19:08:19.984Z,29.12
2018-08-16T19:10:48.669Z,29.09
2018-08-16T19:13:17.380Z,29.02
2018-08-16T19:15:46.420Z,28.94
2018-08-16T19:18:16.778Z,28.85
2018-08-16T19:20:46.656Z,28.80
2018-08-16T19:23:15.416Z,28.75
2018-08-16T19:25:45.074Z,28.66
2018-08-16T19:28:14.990Z,28.57
2018-08-16T19:30:43.720Z,28.54
2018-08-16T19:33:12.405Z,28.49
2018-08-16T19:35:41.071Z,28.41
2018-08-16T19:38:10.355Z,28.30
2018-08-16T19:40:38.985Z,28.17
2018-08-16T19:43:08.032Z,28.10
2018-08-16T19:45:36.946Z,28.08
2018-08-16T19:48:06.528Z,27.99
2018-08-16T19:50:37.044Z,27.87
2018-08-16T19:53:05.853Z,27.78
2018-08-16T19:55:34.493Z,27.79
2018-08-16T19:58:04.208Z,27.74
2018-08-16T20:00:33.059Z,27.68
2018-08-16T20:03:02.163Z,27.54
2018-08-16T20:05:30.832Z,27.44
2018-08-16T20:08:06.895Z,27.37
2018-08-16T20:10:35.581Z,27.34
2018-08-16T20:13:04.344Z,27.33
2018-08-16T20:15:33.519Z,27.25
2018-08-16T20:18:02.371Z,27.14
2018-08-16T20:20:31.042Z,27.10
2018-08-16T20:22:59.909Z,26.91
2018-08-16T20:25:28.604Z,26.91
2018-08-16T20:27:57.942Z,26.86
2018-08-16T20:30:26.764Z,26.80
2018-08-16T20:32:55.588Z,26.69
2018-08-16T20:35:26.325Z,26.52
2018-08-16T20:37:55.083Z,26.55
2018-08-16T20:40:23.861Z,26.46
2018-08-16T20:42:53.207Z,26.42
2018-08-16T20:45:21.874Z,26.36
2018-08-16T20:47:50.644Z,26.23
2018-08-16T20:50:19.300Z,26.24
2018-08-16T20:52:48.044Z,26.06
2018-08-16T20:55:16.735Z,25.85
2018-08-16T20:57:45.346Z,25.80
2018-08-16T21:00:14.821Z,25.89
2018-08-16T21:02:43.758Z,25.87
2018-08-16T21:05:13.231Z,25.87
2018-08-16T21:07:42.069Z,25.81
2018-08-16T21:10:11.645Z,25.73
2018-08-16T21:12:40.391Z,25.71
2018-08-16T21:15:09.425Z,25.68
2018-08-16T21:17:38.146Z,25.70
2018-08-16T21:20:06.862Z,25.67
2018-08-16T21:22:35.521Z,25.65
2018-08-16T21:25:04.238Z,25.65
2018-08-16T21:27:33.707Z,25.60
2018-08-16T21:30:02.424Z,25.51
2018-08-16T21:32:31.146Z,25.38
2018-08-16T21:34:59.995Z,25.30
2018-08-16T21:37:29.330Z,25.19
2018-08-16T21:39:58.046Z,25.22
2018-08-16T21:42:26.788Z,25.18
2018-08-16T21:44:55.449Z,25.14
2018-08-16T21:47:24.084Z,25.11
2018-08-16T21:49:52.679Z,24.95
2018-08-16T21:52:21.454Z,24.93
2018-08-16T21:54:50.122Z,24.89
2018-08-16T21:57:18.843Z,24.86
2018-08-16T21:59:47.602Z,24.65
2018-08-16T22:02:17.071Z,24.63
2018-08-16T22:04:45.710Z,24.69
2018-08-16T22:07:31.849Z,24.65
2018-08-16T22:10:00.742Z,24.57
2018-08-16T22:12:29.384Z,24.44
2018-08-16T22:14:57.993Z,24.37
2018-08-16T22:17:26.587Z,24.26
2018-08-16T22:19:55.228Z,24.20
2018-08-16T22:22:24.463Z,24.15
2018-08-16T22:24:53.765Z,23.97
2018-08-16T22:27:23.827Z,24.03
2018-08-16T22:29:52.445Z,23.95
2018-08-16T22:32:21.246Z,24.01
2018-08-16T22:34:54.100Z,24.03
2018-08-16T22:37:22.749Z,24.03
2018-08-16T22:39:51.411Z,24.10
2018-08-16T22:42:20.180Z,24.12
2018-08-16T22:44:48.895Z,23.99
2018-08-16T22:47:17.552Z,23.91
2018-08-16T22:49:46.853Z,23.81
2018-08-16T22:52:18.081Z,23.85
2018-08-16T22:54:46.787Z,23.82
2018-08-16T22:57:15.472Z,23.72
2018-08-16T22:59:44.084Z,23.71
2018-08-16T23:02:12.674Z,23.46
2018-08-16T23:04:41.311Z,23.54
2018-08-16T23:07:10.886Z,23.51
2018-08-16T23:09:39.619Z,23.40
2018-08-16T23:12:08.157Z,23.24
2018-08-16T23:14:37.117Z,23.22
2018-08-16T23:17:05.768Z,23.21
2018-08-16T23:19:35.254Z,23.29
2018-08-16T23:22:03.986Z,23.25
2018-08-16T23:24:32.624Z,23.23
2018-08-16T23:27:01.809Z,23.09
2018-08-16T23:29:31.590Z,23.08
2018-08-16T23:32:00.351Z,23.11
2018-08-16T23:34:29.101Z,23.03
2018-08-16T23:36:57.793Z,23.05
2018-08-16T23:39:26.853Z,23.04
2018-08-16T23:41:55.761Z,22.98
2018-08-16T23:44:25.143Z,22.94
2018-08-16T23:46:53.740Z,22.93
2018-08-16T23:49:22.465Z,22.89
2018-08-16T23:51:51.738Z,22.77
2018-08-16T23:54:20.351Z,22.78
2018-08-16T23:56:48.985Z,22.83
2018-08-16T23:59:17.678Z,22.80
